Time;durP1;ratioP1;P1;durP2;ratioP2;P2;SDS_P1;SDS_P2;PMS_P1;PMS_P2;Temp;Humidity;BMP_temperature;BMP_pressure;BME280_temperature;BME280_humidity;BME280_pressure;Samples;Min_cycle;Max_cycle;Signal;HPM_P1;HPM_P2
2022/05/08 00:00:20;;;;;;;24.70;13.17;;;11.60;99.90;;;;;;4436532;28;658576;-69
2022/05/08 00:03:08;;;;;;;26.93;14.57;;;11.60;99.90;;;;;;4416764;28;659918;-68
2022/05/08 00:05:55;;;;;;;29.47;14.23;;;11.60;99.90;;;;;;4428107;28;658889;-69
2022/05/08 00:08:42;;;;;;;25.03;13.53;;;11.70;99.90;;;;;;4441797;28;658602;-68
2022/05/08 00:11:31;;;;;;;26.43;13.53;;;11.70;99.90;;;;;;4435489;28;658874;-68
2022/05/08 00:14:18;;;;;;;25.97;12.87;;;11.70;99.90;;;;;;4412610;28;660070;-68
2022/05/08 00:17:05;;;;;;;28.80;12.73;;;11.60;99.90;;;;;;4399886;28;658641;-69
2022/05/08 00:19:53;;;;;;;25.07;13.33;;;11.60;99.90;;;;;;4434788;28;659656;-69
2022/05/08 00:22:43;;;;;;;27.20;13.13;;;11.50;99.90;;;;;;4422789;28;659840;-69
2022/05/08 00:25:31;;;;;;;34.33;14.90;;;11.50;99.90;;;;;;4416812;28;658795;-69
2022/05/08 00:28:19;;;;;;;37.03;15.17;;;11.50;99.90;;;;;;4439792;28;659245;-69
2022/05/08 00:31:09;;;;;;;36.67;16.37;;;11.60;99.90;;;;;;4414254;28;658712;-68
2022/05/08 00:33:56;;;;;;;32.50;16.07;;;11.60;99.90;;;;;;4419836;28;658552;-69
2022/05/08 00:36:43;;;;;;;42.13;18.83;;;11.50;99.90;;;;;;4440168;28;659476;-69
2022/05/08 00:39:31;;;;;;;41.17;15.97;;;11.60;99.90;;;;;;4419796;28;659018;-69
2022/05/08 00:42:19;;;;;;;35.70;17.17;;;11.60;99.90;;;;;;4440862;28;659894;-69
2022/05/08 00:45:09;;;;;;;38.20;18.20;;;11.60;99.90;;;;;;4412586;28;659374;-68
2022/05/08 00:47:56;;;;;;;41.67;19.10;;;11.60;99.90;;;;;;4400858;28;659248;-68
2022/05/08 00:50:43;;;;;;;38.43;20.43;;;11.60;99.90;;;;;;4438740;28;659689;-69
2022/05/08 00:53:33;;;;;;;34.70;17.73;;;11.60;99.90;;;;;;4421866;28;658750;-69
2022/05/08 00:56:21;;;;;;;38.97;18.37;;;11.70;99.90;;;;;;4422450;28;658918;-68
2022/05/08 00:59:08;;;;;;;30.97;16.27;;;11.70;99.90;;;;;;4441870;28;659244;-68
2022/05/08 01:01:57;;;;;;;29.88;14.65;;;11.60;99.90;;;;;;4421633;28;658503;-68
2022/05/08 01:04:44;;;;;;;32.53;14.40;;;11.40;99.90;;;;;;4440552;28;658884;-69
2022/05/08 01:07:32;;;;;;;28.27;14.30;;;11.40;99.90;;;;;;4420031;28;659159;-69
2022/05/08 01:10:19;;;;;;;26.70;14.97;;;11.30;99.90;;;;;;4440751;28;658312;-69
2022/05/08 01:13:07;;;;;;;28.30;14.60;;;11.30;99.90;;;;;;4419295;28;659344;-69
2022/05/08 01:15:55;;;;;;;30.07;15.57;;;11.30;99.90;;;;;;4435421;28;658613;-68
2022/05/08 01:18:44;;;;;;;35.90;15.73;;;11.30;99.90;;;;;;4420258;28;659481;-69
2022/05/08 01:21:37;;;;;;;37.03;16.17;;;11.40;99.90;;;;;;4417060;28;658331;-69
2022/05/08 01:24:24;;;;;;;28.43;14.63;;;11.40;99.90;;;;;;4421012;28;658848;-70
2022/05/08 01:27:11;;;;;;;31.27;15.03;;;11.30;99.90;;;;;;4415885;28;659379;-69
2022/05/08 01:29:58;;;;;;;29.20;15.57;;;11.20;99.90;;;;;;4438057;28;659496;-69
2022/05/08 01:32:46;;;;;;;25.70;14.73;;;11.20;99.90;;;;;;4419574;28;659316;-69
2022/05/08 01:35:33;;;;;;;24.60;14.87;;;11.10;99.90;;;;;;4443498;28;659296;-69
2022/05/08 01:38:23;;;;;;;31.27;15.67;;;11.10;99.90;;;;;;4417863;28;659265;-68
2022/05/08 01:41:10;;;;;;;32.23;16.23;;;11.10;99.90;;;;;;4426672;28;658593;-69
2022/05/08 01:43:57;;;;;;;33.13;17.30;;;11.10;99.90;;;;;;4435964;28;659565;-69
2022/05/08 01:46:44;;;;;;;29.23;16.30;;;11.10;22.40;;;;;;4438391;28;658142;-69
2022/05/08 01:49:32;;;;;;;33.57;16.33;;;11.10;81.00;;;;;;4416444;28;659711;-69
2022/05/08 01:52:19;;;;;;;34.30;17.30;;;11.00;99.90;;;;;;4437467;28;659214;-69
2022/05/08 01:55:09;;;;;;;37.35;18.35;;;11.10;92.20;;;;;;4416306;28;658580;-68
2022/05/08 01:57:56;;;;;;;33.03;17.03;;;11.00;99.90;;;;;;4414951;28;659191;-68
2022/05/08 02:00:43;;;;;;;35.30;16.73;;;11.00;99.90;;;;;;4440280;28;659128;-68
2022/05/08 02:03:30;;;;;;;29.47;15.63;;;10.90;99.90;;;;;;4416074;28;658247;-69
2022/05/08 02:06:18;;;;;;;31.43;17.03;;;10.80;99.90;;;;;;4441558;28;658505;-69
2022/05/08 02:09:05;;;;;;;32.30;17.63;;;10.80;99.90;;;;;;4417204;28;659262;-69
2022/05/08 02:11:54;;;;;;;40.03;18.50;;;10.80;99.90;;;;;;4441136;28;659988;-69
2022/05/08 02:14:43;;;;;;;38.40;19.07;;;10.90;99.90;;;;;;4418152;28;658920;-69
2022/05/08 02:17:30;;;;;;;34.57;20.80;;;10.90;99.90;;;;;;4420298;28;658456;-69
2022/05/08 02:20:17;;;;;;;36.03;18.23;;;10.90;99.90;;;;;;4439547;28;658555;-69
2022/05/08 02:23:05;;;;;;;37.17;19.83;;;10.90;99.90;;;;;;4440022;28;658832;-69
2022/05/08 02:25:52;;;;;;;34.57;16.57;;;10.80;99.90;;;;;;4417401;28;661032;-69
2022/05/08 02:28:40;;;;;;;27.63;15.90;;;10.80;99.90;;;;;;4433989;28;658653;-69
2022/05/08 02:31:27;;;;;;;33.67;16.53;;;10.70;99.90;;;;;;4417797;28;659580;-69
2022/05/08 02:34:15;;;;;;;37.20;18.67;;;10.60;99.90;;;;;;4436219;28;658841;-69
2022/05/08 02:37:02;;;;;;;32.77;17.73;;;10.50;99.90;;;;;;4440629;28;658836;-69
2022/05/08 02:39:49;;;;;;;34.10;18.93;;;10.50;99.90;;;;;;4439946;28;658659;-69
2022/05/08 02:42:37;;;;;;;36.77;20.07;;;10.50;99.90;;;;;;4419383;28;659200;-69
2022/05/08 02:45:25;;;;;;;45.00;22.07;;;10.40;99.90;;;;;;4442036;28;658461;-69
2022/05/08 02:48:12;;;;;;;43.00;22.40;;;10.40;99.90;;;;;;4409934;28;659858;-68
2022/05/08 02:51:00;;;;;;;45.80;23.23;;;10.40;99.90;;;;;;4432392;28;658312;-69
2022/05/08 02:53:48;;;;;;;43.03;17.67;;;10.30;99.90;;;;;;4439279;28;658589;-69
2022/05/08 02:59:40;;;;;;;46.10;20.83;;;10.10;99.90;;;;;;4394941;28;659342;-69
2022/05/08 03:02:29;;;;;;;42.70;21.83;;;10.20;99.90;;;;;;4444304;28;659153;-68
2022/05/08 03:05:16;;;;;;;40.47;22.20;;;10.00;99.90;;;;;;4419851;28;661422;-68
2022/05/08 03:08:05;;;;;;;45.15;23.90;;;10.00;99.90;;;;;;4441742;28;659829;-69
2022/05/08 03:13:56;;;;;;;43.27;23.70;;;10.00;99.90;;;;;;4394015;28;660213;-68
2022/05/08 03:16:44;;;;;;;46.17;23.20;;;10.00;99.90;;;;;;4436450;28;659437;-68
2022/05/08 03:19:32;;;;;;;50.50;24.60;;;10.00;99.90;;;;;;4419182;28;659277;-68
2022/05/08 03:22:20;;;;;;;41.90;22.97;;;9.90;99.90;;;;;;4439151;28;658578;-68
2022/05/08 03:25:08;;;;;;;44.87;23.33;;;9.90;99.90;;;;;;4439663;28;658448;-68
2022/05/08 03:27:55;;;;;;;48.33;23.10;;;9.90;99.90;;;;;;4420035;28;657212;-68
2022/05/08 03:30:43;;;;;;;48.67;23.87;;;9.80;99.90;;;;;;4439555;28;658894;-68
2022/05/08 03:33:30;;;;;;;52.67;25.77;;;9.80;99.90;;;;;;4433481;28;657780;-68
2022/05/08 03:36:19;;;;;;;58.47;25.50;;;9.90;99.90;;;;;;4442729;28;658700;-68
2022/05/08 03:39:06;;;;;;;47.53;25.60;;;9.90;99.90;;;;;;4418136;28;657563;-69
2022/05/08 03:41:53;;;;;;;55.30;25.57;;;9.90;99.90;;;;;;4441577;28;658451;-68
2022/05/08 03:44:41;;;;;;;49.57;25.50;;;10.00;99.90;;;;;;4422314;28;659055;-69
2022/05/08 03:47:28;;;;;;;43.70;23.37;;;10.10;99.90;;;;;;4443579;28;659530;-69
2022/05/08 03:50:15;;;;;;;45.57;23.63;;;10.10;99.90;;;;;;4425707;28;658472;-68
2022/05/08 03:53:04;;;;;;;50.50;20.47;;;10.10;99.90;;;;;;4434681;28;659755;-69
2022/05/08 03:55:51;;;;;;;48.83;22.13;;;10.10;99.90;;;;;;4416456;28;658816;-68
2022/05/08 03:58:38;;;;;;;50.20;23.33;;;10.30;99.90;;;;;;4440983;28;659900;-69
2022/05/08 04:01:26;;;;;;;50.57;24.40;;;10.40;99.90;;;;;;4419954;28;658467;-68
2022/05/08 04:04:13;;;;;;;43.27;21.07;;;10.40;99.90;;;;;;4441577;28;659629;-68
2022/05/08 04:07:00;;;;;;;41.13;20.13;;;10.40;99.90;;;;;;4418727;28;658777;-68
2022/05/08 04:09:49;;;;;;;41.07;21.43;;;10.40;99.90;;;;;;4440112;28;659725;-68
2022/05/08 04:12:36;;;;;;;42.47;21.20;;;10.50;99.90;;;;;;4421800;28;658746;-68
2022/05/08 04:18:28;;;;;;;41.57;22.87;;;10.60;99.90;;;;;;4423404;28;659474;-68
2022/05/08 04:21:15;;;;;;;45.80;21.87;;;10.70;99.90;;;;;;4420369;28;660021;-68
2022/05/08 04:24:16;;;;;;;41.70;22.30;;;10.80;99.90;;;;;;4440545;28;660019;-69
2022/05/08 04:27:05;;;;;;;43.43;20.77;;;10.90;99.90;;;;;;4417324;28;658523;-68
2022/05/08 04:29:53;;;;;;;46.23;21.67;;;11.00;99.90;;;;;;4419941;28;660097;-69
2022/05/08 04:32:40;;;;;;;37.17;18.73;;;11.10;99.90;;;;;;4433902;28;658383;-69
2022/05/08 04:35:27;;;;;;;40.50;19.50;;;11.00;99.90;;;;;;4446072;28;659028;-69
2022/05/08 04:38:15;;;;;;;39.30;18.67;;;11.00;99.90;;;;;;4439813;28;658508;-69
2022/05/08 04:41:02;;;;;;;50.63;25.03;;;11.10;99.90;;;;;;4439974;28;659995;-68
2022/05/08 04:43:57;;;;;;;53.87;27.63;;;11.20;99.90;;;;;;4439059;28;658952;-68
2022/05/08 04:46:44;;;;;;;36.13;18.37;;;11.50;99.90;;;;;;4418735;28;659032;-68
2022/05/08 04:49:31;;;;;;;52.03;29.17;;;11.50;99.90;;;;;;4422897;28;660449;-68
2022/05/08 04:52:18;;;;;;;62.70;29.07;;;11.60;99.90;;;;;;4445320;28;660673;-68
2022/05/08 04:55:06;;;;;;;54.77;27.67;;;11.80;99.90;;;;;;4420622;28;658883;-68
2022/05/08 04:57:53;;;;;;;47.50;28.07;;;11.90;99.90;;;;;;4447239;28;660118;-69
2022/05/08 05:00:42;;;;;;;59.60;31.87;;;12.00;99.90;;;;;;4419152;28;658715;-68
2022/05/08 05:03:29;;;;;;;74.23;39.53;;;12.10;99.90;;;;;;4438975;28;659458;-69
2022/05/08 05:06:17;;;;;;;74.53;41.90;;;12.20;99.90;;;;;;4418750;28;658717;-68
2022/05/08 05:09:04;;;;;;;80.77;47.87;;;12.30;99.90;;;;;;4439391;28;659940;-68
2022/05/08 05:11:51;;;;;;;88.23;49.77;;;12.40;99.90;;;;;;4419623;28;658501;-68
2022/05/08 05:14:38;;;;;;;89.15;48.30;;;12.50;99.90;;;;;;4439981;28;659823;-69
2022/05/08 05:17:27;;;;;;;88.93;49.73;;;12.60;99.90;;;;;;4419771;28;658457;-68
2022/05/08 05:20:14;;;;;;;90.37;49.03;;;12.80;99.90;;;;;;4439244;28;658495;-68
2022/05/08 05:23:01;;;;;;;90.97;49.27;;;12.80;99.90;;;;;;4420164;28;658278;-68
2022/05/08 05:25:49;;;;;;;83.90;45.70;;;12.90;99.90;;;;;;4441131;28;659652;-68
2022/05/08 05:28:36;;;;;;;86.67;46.67;;;13.00;94.40;;;;;;4425065;28;658890;-68
2022/05/08 05:31:24;;;;;;;86.43;47.53;;;13.20;1.00;;;;;;4444660;28;658790;-69
2022/05/08 05:34:13;;;;;;;83.97;47.47;;;13.20;1.00;;;;;;4420888;28;657681;-69
2022/05/08 05:37:00;;;;;;;78.30;46.17;;;13.30;1.00;;;;;;4421808;28;657969;-68
2022/05/08 05:39:47;;;;;;;86.43;46.77;;;13.50;1.00;;;;;;4442225;28;658944;-69
2022/05/08 05:42:35;;;;;;;77.90;43.83;;;13.60;1.00;;;;;;4435990;28;657636;-68
2022/05/08 05:45:23;;;;;;;81.33;45.93;;;13.40;1.00;;;;;;4441458;28;658435;-68
2022/05/08 05:48:09;;;;;;;90.60;47.23;;;13.60;99.90;;;;;;4432420;28;657657;-68
2022/05/08 05:50:58;;;;;;;82.70;47.00;;;13.60;1.00;;;;;;4438904;28;658461;-68
2022/05/08 05:53:45;;;;;;;81.83;44.30;;;13.80;99.90;;;;;;4425567;28;657496;-68
2022/05/08 05:56:32;;;;;;;80.83;42.53;;;13.70;49.20;;;;;;4439160;28;659154;-68
2022/05/08 05:59:19;;;;;;;82.87;43.13;;;13.90;1.00;;;;;;4442735;28;658779;-68
2022/05/08 06:02:07;;;;;;;79.27;42.00;;;13.90;1.00;;;;;;4415793;28;658917;-68
2022/05/08 06:04:54;;;;;;;68.80;38.30;;;13.80;1.00;;;;;;4437140;28;657536;-68
2022/05/08 06:07:43;;;;;;;72.50;38.07;;;13.80;57.00;;;;;;4417056;28;657717;-69
2022/05/08 06:10:30;;;;;;;66.57;35.27;;;13.80;1.00;;;;;;4432969;28;659076;-68
2022/05/08 06:13:17;;;;;;;62.73;36.03;;;13.80;99.90;;;;;;4442941;28;658034;-68
2022/05/08 06:16:05;;;;;;;64.90;37.37;;;13.80;79.10;;;;;;4435392;28;658326;-69
2022/05/08 06:18:52;;;;;;;65.73;35.13;;;14.10;99.90;;;;;;4417662;28;659660;-68
2022/05/08 06:21:39;;;;;;;66.87;35.77;;;14.30;99.90;;;;;;4437041;28;658139;-68
2022/05/08 06:24:28;;;;;;;56.20;30.70;;;14.60;1.00;;;;;;4427156;28;658601;-68
2022/05/08 06:27:15;;;;;;;57.60;30.67;;;14.50;1.00;;;;;;4428119;28;657460;-68
2022/05/08 06:30:02;;;;;;;59.10;32.50;;;14.80;99.90;;;;;;4443535;28;658570;-68
2022/05/08 06:32:50;;;;;;;47.23;28.53;;;14.60;99.90;;;;;;4443317;28;658603;-68
2022/05/08 06:35:39;;;;;;;49.40;28.57;;;14.80;1.00;;;;;;4415928;28;659435;-68
2022/05/08 06:38:26;;;;;;;48.03;27.27;;;14.90;99.90;;;;;;4409780;28;657555;-68
2022/05/08 06:41:14;;;;;;;50.37;29.57;;;15.20;1.00;;;;;;4437447;28;659121;-68
2022/05/08 06:44:03;;;;;;;55.23;31.20;;;15.30;99.90;;;;;;4425274;28;657836;-68
2022/05/08 06:46:50;;;;;;;58.77;31.03;;;15.40;99.90;;;;;;4432652;28;659181;-68
2022/05/08 06:49:37;;;;;;;52.27;30.20;;;15.60;1.00;;;;;;4444991;28;659388;-68
2022/05/08 06:52:24;;;;;;;45.03;28.13;;;15.50;1.00;;;;;;4438979;28;657894;-68
2022/05/08 06:55:12;;;;;;;51.43;28.20;;;16.10;99.90;;;;;;4421761;28;657444;-68
2022/05/08 06:58:00;;;;;;;50.33;27.93;;;16.30;1.00;;;;;;4436861;28;659065;-68
2022/05/08 07:03:52;;;;;;;44.40;24.37;;;15.90;99.90;;;;;;4388967;28;659296;-68
2022/05/08 07:06:40;;;;;;;46.53;25.03;;;15.80;99.90;;;;;;4437612;28;658877;-68
2022/05/08 07:09:28;;;;;;;41.63;23.90;;;15.90;99.90;;;;;;4416117;28;660541;-68
2022/05/08 07:12:15;;;;;;;42.23;25.17;;;16.10;50.40;;;;;;4424703;28;658545;-68
2022/05/08 07:15:04;;;;;;;44.77;23.47;;;16.20;99.90;;;;;;4442165;28;658587;-68
2022/05/08 07:17:51;;;;;;;34.13;19.92;;;16.10;1.00;;;;;;4419858;28;659169;-68
2022/05/08 07:20:38;;;;;;;36.00;20.00;;;16.20;1.00;;;;;;4439558;28;659658;-68
2022/05/08 07:23:26;;;;;;;38.70;22.87;;;16.50;1.00;;;;;;4419751;28;657869;-68
2022/05/08 07:26:13;;;;;;;38.43;20.87;;;16.70;1.00;;;;;;4435969;28;658425;-68
2022/05/08 07:29:00;;;;;;;49.67;21.88;;;16.70;1.00;;;;;;4421734;28;657807;-68
2022/05/08 07:31:49;;;;;;;38.23;22.80;;;16.60;1.00;;;;;;4440588;28;658520;-69
2022/05/08 07:37:43;;;;;;;35.67;21.80;;;17.60;1.00;;;;;;4390681;28;658931;-69
2022/05/08 07:40:30;;;;;;;32.87;20.20;;;17.90;1.00;;;;;;4418848;28;658180;-69
2022/05/08 07:43:18;;;;;;;34.07;20.00;;;17.80;1.00;;;;;;4441454;28;658998;-69
2022/05/08 07:46:05;;;;;;;29.50;17.60;;;17.70;1.00;;;;;;4430169;28;657654;-69
2022/05/08 07:48:54;;;;;;;28.37;17.10;;;17.80;1.00;;;;;;4435279;28;659106;-69
2022/05/08 07:51:41;;;;;;;27.20;16.43;;;17.50;1.00;;;;;;4421000;28;658302;-68
2022/05/08 07:54:28;;;;;;;29.17;17.53;;;18.10;1.00;;;;;;4441007;28;658971;-68
2022/05/08 07:57:15;;;;;;;37.87;18.93;;;18.30;1.00;;;;;;4422829;28;657688;-68
2022/05/08 08:00:03;;;;;;;31.63;18.27;;;17.90;1.00;;;;;;4438615;28;658978;-69
2022/05/08 08:02:51;;;;;;;30.00;18.13;;;18.10;1.00;;;;;;4420875;28;657987;-68
2022/05/08 08:05:39;;;;;;;25.43;16.83;;;17.80;1.00;;;;;;4442057;28;658536;-69
2022/05/08 08:08:26;;;;;;;25.83;15.77;;;18.20;1.00;;;;;;4420774;28;658065;-68
2022/05/08 08:11:14;;;;;;;22.23;11.37;;;18.10;1.00;;;;;;4439135;28;657517;-68
2022/05/08 08:14:01;;;;;;;23.80;12.20;;;18.10;1.00;;;;;;4417169;28;658712;-68
2022/05/08 08:16:49;;;;;;;22.00;12.87;;;18.60;1.00;;;;;;4435342;28;658033;-68
2022/05/08 08:19:36;;;;;;;17.20;11.27;;;18.90;1.00;;;;;;4422410;28;657818;-68
2022/05/08 08:22:24;;;;;;;22.40;13.00;;;19.30;1.00;;;;;;4446230;28;657754;-68
2022/05/08 08:25:11;;;;;;;26.30;14.57;;;20.00;1.00;;;;;;4415557;28;657498;-68
2022/05/08 08:27:59;;;;;;;20.63;13.50;;;18.70;1.00;;;;;;4443461;28;657990;-68
2022/05/08 08:30:46;;;;;;;26.20;12.13;;;18.90;1.00;;;;;;4419025;28;657874;-68
2022/05/08 08:33:33;;;;;;;23.40;11.53;;;19.40;1.00;;;;;;4444584;28;658115;-68
2022/05/08 08:36:20;;;;;;;22.53;12.47;;;19.80;1.00;;;;;;4426137;28;658648;-68
2022/05/08 08:39:09;;;;;;;18.40;11.87;;;19.40;1.00;;;;;;4441609;28;658345;-68
2022/05/08 08:42:01;;;;;;;20.47;13.07;;;19.70;1.00;;;;;;4420737;28;657959;-69
2022/05/08 08:47:55;;;;;;;18.10;11.57;;;19.70;1.00;;;;;;4413818;28;657160;-69
2022/05/08 08:50:42;;;;;;;22.07;11.53;;;19.50;1.00;;;;;;4414439;28;659907;-69
2022/05/08 08:53:29;;;;;;;19.53;12.10;;;19.20;1.00;;;;;;4436050;28;657209;-69
2022/05/08 08:56:18;;;;;;;21.80;12.40;;;19.10;1.00;;;;;;4432311;28;657572;-69
2022/05/08 08:59:05;;;;;;;20.30;12.40;;;19.20;1.00;;;;;;4417873;28;657851;-68
2022/05/08 09:01:52;;;;;;;24.33;11.73;;;19.30;1.00;;;;;;4430784;28;659556;-68
2022/05/08 09:04:40;;;;;;;24.17;12.33;;;18.50;1.00;;;;;;4426750;28;657540;-69
2022/05/08 09:07:40;;;;;;;24.83;12.43;;;18.80;1.00;;;;;;4424016;28;658652;-69
2022/05/08 09:10:35;;;;;;;22.47;12.70;;;18.70;1.00;;;;;;4382922;28;659001;-69
2022/05/08 09:13:24;;;;;;;20.27;12.00;;;18.90;1.00;;;;;;4411441;28;657858;-69
2022/05/08 09:16:11;;;;;;;21.87;12.23;;;19.30;1.00;;;;;;4421707;28;657555;-69
2022/05/08 09:18:58;;;;;;;16.63;11.33;;;19.40;1.00;;;;;;4429993;28;659378;-69
2022/05/08 09:22:00;;;;;;;20.93;11.27;;;19.60;1.00;;;;;;4411316;28;657601;-68
2022/05/08 09:24:51;;;;;;;19.67;12.17;;;19.30;1.00;;;;;;4406988;28;658026;-69
2022/05/08 09:27:38;;;;;;;20.17;12.00;;;19.10;1.00;;;;;;4411102;28;658747;-69
2022/05/08 09:30:27;;;;;;;24.50;12.60;;;19.00;1.00;;;;;;4411128;28;657833;-69
2022/05/08 09:33:23;;;;;;;21.03;12.03;;;19.00;1.00;;;;;;4444304;28;657776;-69
2022/05/08 09:36:11;;;;;;;18.13;11.57;;;19.90;1.00;;;;;;4397665;28;657539;-69
2022/05/08 09:38:59;;;;;;;20.63;12.70;;;20.50;1.00;;;;;;4429592;28;658362;-69
2022/05/08 09:41:47;;;;;;;18.80;12.90;;;20.10;1.00;;;;;;4407792;28;657310;-68
2022/05/08 09:44:34;;;;;;;21.83;13.00;;;18.90;1.00;;;;;;4427831;28;658004;-69
2022/05/08 09:47:44;;;;;;;20.93;12.63;;;19.40;1.00;;;;;;4393093;28;657734;-69
2022/05/08 09:50:31;;;;;;;19.17;11.83;;;19.30;1.00;;;;;;4399912;28;657842;-69
2022/05/08 09:53:19;;;;;;;20.47;11.17;;;19.20;1.00;;;;;;4427108;28;658001;-68
2022/05/08 09:56:07;;;;;;;19.05;11.40;;;19.70;1.00;;;;;;4398782;28;657354;-68
2022/05/08 09:58:54;;;;;;;19.70;12.47;;;20.00;1.00;;;;;;4425152;28;658162;-68
2022/05/08 10:01:41;;;;;;;20.13;12.37;;;19.90;1.00;;;;;;4401632;28;658598;-69
2022/05/08 10:04:34;;;;;;;19.80;10.70;;;20.40;1.00;;;;;;4424859;28;658462;-69
2022/05/08 10:07:22;;;;;;;16.37;11.17;;;21.30;1.00;;;;;;4404068;28;657715;-68
2022/05/08 10:16:50;;;;;;;19.57;11.83;;;22.50;1.00;;;;;;4400962;28;658300;-69
2022/05/08 10:19:45;;;;;;;17.57;11.63;;;22.30;1.00;;;;;;4378016;28;658585;-69
2022/05/08 10:22:47;;;;;;;19.57;11.80;;;22.20;1.00;;;;;;4379292;28;657628;-69
2022/05/08 10:25:34;;;;;;;19.37;11.23;;;22.30;1.00;;;;;;4400602;28;657697;-69
2022/05/08 10:28:21;;;;;;;18.03;11.07;;;22.60;1.00;;;;;;4402958;28;657938;-69
2022/05/08 10:31:42;;;;;;;19.97;10.03;;;23.00;1.00;;;;;;4424749;28;657293;-69
2022/05/08 10:34:31;;;;;;;17.98;11.05;;;22.40;1.00;;;;;;4400581;28;657811;-69
2022/05/08 10:37:28;;;;;;;19.60;11.47;;;23.10;1.00;;;;;;4397723;28;659651;-69
2022/05/08 10:40:38;;;;;;;16.57;11.07;;;22.50;1.00;;;;;;4381787;28;657493;-69
2022/05/08 10:43:32;;;;;;;17.23;10.70;;;22.60;1.00;;;;;;4393386;28;657381;-69
2022/05/08 10:46:25;;;;;;;20.02;10.50;;;22.90;1.00;;;;;;4399115;28;658391;-69
2022/05/08 10:49:12;;;;;;;17.00;10.35;;;23.30;1.00;;;;;;4375768;28;657739;-69
2022/05/08 10:52:08;;;;;;;16.57;9.93;;;22.70;1.00;;;;;;4428084;28;657723;-69
2022/05/08 10:55:00;;;;;;;14.20;9.60;;;22.60;1.00;;;;;;4416838;28;657148;-69
2022/05/08 10:57:48;;;;;;;17.65;9.98;;;23.30;1.00;;;;;;4409240;28;658238;-69
2022/05/08 11:00:35;;;;;;;17.48;9.75;;;23.10;1.00;;;;;;4408086;28;656801;-70
2022/05/08 11:03:23;;;;;;;13.75;9.75;;;23.40;1.00;;;;;;4423429;28;658344;-69
2022/05/08 11:06:10;;;;;;;17.50;9.98;;;23.90;1.00;;;;;;4416948;28;656804;-69
2022/05/08 11:09:00;;;;;;;15.43;10.23;;;24.00;1.00;;;;;;4425692;28;657926;-69
2022/05/08 11:11:49;;;;;;;12.73;9.50;;;24.10;1.00;;;;;;4399164;28;657998;-70
2022/05/08 11:14:36;;;;;;;11.10;8.07;;;23.60;1.00;;;;;;4403072;28;656435;-69
2022/05/08 11:17:23;;;;;;;12.38;6.95;;;22.50;1.00;;;;;;4423597;28;658009;-69
2022/05/08 11:20:10;;;;;;;12.23;6.83;;;22.40;1.00;;;;;;4400020;28;657820;-69
2022/05/08 11:22:58;;;;;;;17.17;8.57;;;22.70;1.00;;;;;;4424797;28;657616;-69
2022/05/08 11:25:46;;;;;;;11.80;8.03;;;21.90;1.00;;;;;;4400780;28;656915;-69
2022/05/08 11:28:35;;;;;;;12.05;8.07;;;22.40;1.00;;;;;;4425673;28;657262;-69
2022/05/08 11:31:24;;;;;;;18.70;9.77;;;21.70;1.00;;;;;;4408021;28;658172;-69
2022/05/08 11:37:21;;;;;;;22.73;12.40;;;20.70;1.00;;;;;;4397802;28;660332;-69
2022/05/08 11:40:10;;;;;;;21.07;8.30;;;21.60;1.00;;;;;;4408212;28;657463;-69
2022/05/08 11:42:57;;;;;;;12.53;7.87;;;21.30;1.00;;;;;;4401763;28;658227;-69
2022/05/08 11:45:59;;;;;;;16.43;9.60;;;20.50;1.00;;;;;;4442610;28;658393;-68
2022/05/08 11:48:47;;;;;;;11.73;8.47;;;20.80;1.00;;;;;;4426722;28;656710;-68
2022/05/08 11:51:42;;;;;;;17.60;8.07;;;20.60;1.00;;;;;;4445456;28;657202;-68
2022/05/08 11:54:30;;;;;;;14.70;8.80;;;20.60;1.00;;;;;;4423287;28;657157;-68
2022/05/08 11:57:18;;;;;;;13.00;7.83;;;20.70;1.00;;;;;;4420496;28;657970;-68
2022/05/08 12:00:07;;;;;;;11.60;7.83;;;20.80;1.00;;;;;;4429078;28;656587;-68
2022/05/08 12:02:56;;;;;;;17.30;7.27;;;20.90;1.00;;;;;;4440098;28;656879;-68
2022/05/08 12:05:43;;;;;;;25.13;12.33;;;20.60;1.00;;;;;;4419650;28;657391;-68
2022/05/08 12:08:30;;;;;;;17.47;9.50;;;20.30;1.00;;;;;;4423571;28;657665;-68
2022/05/08 12:11:27;;;;;;;15.17;8.70;;;20.30;1.00;;;;;;4447380;28;656362;-68
2022/05/08 12:14:15;;;;;;;12.83;9.07;;;20.40;1.00;;;;;;4444688;28;656469;-68
2022/05/08 12:17:03;;;;;;;14.67;8.27;;;20.60;1.00;;;;;;4444882;28;656607;-68
2022/05/08 12:19:53;;;;;;;11.87;8.30;;;21.10;1.00;;;;;;4425353;28;656692;-68
2022/05/08 12:22:40;;;;;;;24.70;16.23;;;21.10;1.00;;;;;;4424830;28;657110;-68
2022/05/08 12:25:28;;;;;;;90.47;50.57;;;21.30;1.00;;;;;;4442790;28;658863;-69
2022/05/08 12:28:16;;;;;;;14.93;8.00;;;21.50;1.00;;;;;;4420616;28;657408;-68
2022/05/08 12:31:03;;;;;;;14.47;8.90;;;21.60;1.00;;;;;;4449793;28;657976;-69
2022/05/08 12:33:50;;;;;;;53.47;31.40;;;23.00;1.00;;;;;;4427310;28;656978;-68
2022/05/08 12:36:40;;;;;;;13.30;8.10;;;22.00;1.00;;;;;;4444094;28;658033;-69
2022/05/08 12:39:30;;;;;;;18.07;11.63;;;22.30;1.00;;;;;;4429383;28;658362;-70
2022/05/08 12:42:17;;;;;;;13.60;8.13;;;23.50;1.00;;;;;;4426432;28;657716;-70
2022/05/08 12:45:06;;;;;;;44.25;24.40;;;23.80;1.00;;;;;;4437472;28;656208;-70
2022/05/08 12:47:54;;;;;;;77.78;48.42;;;22.80;1.00;;;;;;4419523;28;658962;-70
2022/05/08 12:50:41;;;;;;;62.92;38.40;;;22.20;1.00;;;;;;4421856;28;658157;-69
2022/05/08 12:53:29;;;;;;;10.23;6.95;;;23.10;1.00;;;;;;4449832;28;657309;-70
2022/05/08 12:56:19;;;;;;;11.27;7.37;;;22.90;1.00;;;;;;4428559;28;656895;-70
2022/05/08 13:02:12;;;;;;;12.40;7.25;;;22.60;1.00;;;;;;4404471;28;658321;-69
2022/05/08 13:05:00;;;;;;;13.43;6.72;;;22.40;1.00;;;;;;4445597;28;657295;-70
2022/05/08 13:07:47;;;;;;;8.85;6.25;;;21.80;1.00;;;;;;4428894;28;657285;-69
2022/05/08 13:10:35;;;;;;;10.63;6.20;;;21.80;1.00;;;;;;4449153;28;655843;-70
2022/05/08 13:13:23;;;;;;;12.68;5.90;;;21.40;1.00;;;;;;4422812;28;658355;-70
2022/05/08 13:16:14;;;;;;;8.00;6.50;;;21.70;1.00;;;;;;4444124;28;657409;-70
2022/05/08 13:19:02;;;;;;;13.68;7.07;;;22.80;1.00;;;;;;4427953;28;655863;-70
2022/05/08 13:21:50;;;;;;;14.27;6.13;;;23.10;1.00;;;;;;4438202;28;657810;-70
2022/05/08 13:24:38;;;;;;;12.93;6.63;;;23.20;1.00;;;;;;4424273;28;657765;-70
2022/05/08 13:27:26;;;;;;;13.05;5.70;;;22.60;1.00;;;;;;4434565;28;656829;-70
2022/05/08 13:30:14;;;;;;;12.02;5.93;;;23.00;1.00;;;;;;4441692;28;657339;-70
2022/05/08 13:33:02;;;;;;;9.48;6.20;;;22.20;1.00;;;;;;4429969;28;656377;-70
2022/05/08 13:35:49;;;;;;;11.07;5.10;;;22.20;1.00;;;;;;4440839;28;655848;-70
2022/05/08 13:38:39;;;;;;;13.38;6.00;;;21.80;1.00;;;;;;4421561;28;658028;-70
2022/05/08 13:41:26;;;;;;;8.67;6.03;;;21.40;1.00;;;;;;4416304;28;656680;-70
2022/05/08 13:44:14;;;;;;;8.73;6.60;;;21.00;1.00;;;;;;4432871;28;655524;-68
2022/05/08 13:47:04;;;;;;;12.70;7.50;;;20.00;1.00;;;;;;4404399;28;655761;-67
2022/05/08 13:49:55;;;;;;;13.50;6.87;;;19.30;1.00;;;;;;4390493;28;657731;-67
2022/05/08 13:52:43;;;;;;;11.80;7.87;;;19.30;1.00;;;;;;4399236;28;658224;-67
2022/05/08 13:55:31;;;;;;;13.53;6.97;;;18.90;1.00;;;;;;4412838;28;656485;-67
2022/05/08 13:58:18;;;;;;;10.10;7.53;;;18.60;1.00;;;;;;4423435;28;657914;-68
2022/05/08 14:01:06;;;;;;;13.97;8.23;;;18.60;1.00;;;;;;4399305;28;656913;-67
2022/05/08 14:03:55;;;;;;;12.87;6.90;;;18.30;1.00;;;;;;4425807;28;657505;-67
2022/05/08 14:06:42;;;;;;;16.17;8.80;;;18.00;1.00;;;;;;4394792;28;657593;-67
2022/05/08 14:09:29;;;;;;;16.27;9.43;;;17.40;1.00;;;;;;4430823;28;656539;-67
2022/05/08 14:12:16;;;;;;;14.70;9.83;;;16.80;99.90;;;;;;4395528;28;656714;-67
2022/05/08 14:15:04;;;;;;;11.80;8.90;;;17.10;1.00;;;;;;4413726;28;658550;-67
2022/05/08 14:17:53;;;;;;;14.47;8.97;;;17.20;99.90;;;;;;4396270;28;656278;-67
2022/05/08 14:20:40;;;;;;;12.10;8.63;;;17.00;99.90;;;;;;4406374;28;657797;-67
2022/05/08 14:23:27;;;;;;;10.53;7.43;;;17.10;1.00;;;;;;4427742;28;658234;-67
2022/05/08 14:26:14;;;;;;;14.00;7.50;;;17.30;99.90;;;;;;4414705;28;656203;-67
2022/05/08 14:29:02;;;;;;;10.67;7.63;;;17.70;99.90;;;;;;4395035;28;657913;-67
2022/05/08 14:37:59;;;;;;;9.10;5.60;;;19.70;1.00;;;;;;4391484;28;658056;-67
2022/05/08 14:40:46;;;;;;;8.57;5.67;;;19.40;1.00;;;;;;4393311;28;656224;-67
2022/05/08 14:43:34;;;;;;;8.53;5.90;;;19.80;1.00;;;;;;4415826;28;656064;-67
2022/05/08 14:46:21;;;;;;;12.80;5.80;;;19.90;1.00;;;;;;4408694;28;655395;-67
2022/05/08 14:49:08;;;;;;;7.90;5.23;;;20.60;1.00;;;;;;4416168;28;656913;-68